Time;durP1;ratioP1;P1;durP2;ratioP2;P2;SDS_P1;SDS_P2;PMS_P1;PMS_P2;Temp;Humidity;BMP_temperature;BMP_pressure;BME280_temperature;BME280_humidity;BME280_pressure;Samples;Min_cycle;Max_cycle;Signal;HPM_P1;HPM_P2
2022/12/08 00:01:21;;;;;;;;;;;2.30;99.90;;;;;;5014106;28;19966;-85
2022/12/08 00:03:49;;;;;;;;;;;2.20;99.90;;;;;;5014670;28;20379;-85
2022/12/08 00:09:20;;;;;;;;;;;2.10;99.90;;;;;;5029965;28;20418;-84
2022/12/08 00:11:47;;;;;;;;;;;2.10;99.90;;;;;;4998296;28;19928;-85
2022/12/08 00:14:12;;;;;;;;;;;2.00;99.90;;;;;;5013864;28;19944;-88
2022/12/08 00:16:38;;;;;;;;;;;2.00;99.90;;;;;;5014647;28;20357;-86
2022/12/08 00:19:03;;;;;;;;;;;2.00;99.90;;;;;;5013450;28;20012;-85
2022/12/08 00:21:29;;;;;;;;;;;2.00;99.90;;;;;;4996870;28;19928;-85
2022/12/08 00:23:55;;;;;;;;;;;1.90;99.90;;;;;;5013451;28;19921;-85
2022/12/08 00:26:21;;;;;;;;;;;1.90;99.90;;;;;;4997003;28;19979;-84
2022/12/08 00:28:46;;;;;;;;;;;1.90;99.90;;;;;;5014168;28;19921;-85
2022/12/08 00:31:12;;;;;;;;;;;1.80;99.90;;;;;;4998727;28;19929;-85
2022/12/08 00:33:38;;;;;;;;;;;1.90;99.90;;;;;;5001604;28;19928;-88
2022/12/08 00:36:07;;;;;;;;;;;1.90;99.90;;;;;;5024586;28;19952;-86
2022/12/08 00:38:33;;;;;;;;;;;1.90;99.90;;;;;;5019726;28;20008;-84
2022/12/08 00:40:58;;;;;;;;;;;1.90;99.90;;;;;;5014366;28;19967;-86
2022/12/08 00:43:24;;;;;;;;;;;1.90;99.90;;;;;;5014507;28;19976;-85
2022/12/08 00:45:49;;;;;;;;;;;1.90;99.90;;;;;;5012865;28;19922;-85
2022/12/08 00:48:15;;;;;;;;;;;1.90;99.90;;;;;;5014084;28;19921;-90
2022/12/08 00:50:41;;;;;;;;;;;1.90;99.90;;;;;;5013975;28;20005;-85
2022/12/08 00:53:06;;;;;;;;;;;1.90;99.90;;;;;;5013786;28;19937;-85
2022/12/08 00:55:32;;;;;;;;;;;2.00;99.90;;;;;;5012880;28;19922;-84
2022/12/08 00:58:00;;;;;;;;;;;1.90;99.90;;;;;;5012962;28;19929;-84
2022/12/08 01:00:26;;;;;;;;;;;1.90;99.90;;;;;;5014046;28;19921;-84
2022/12/08 01:02:51;;;;;;;;;;;1.80;99.90;;;;;;5012961;28;20427;-84
2022/12/08 01:05:17;;;;;;;;;;;1.80;99.90;;;;;;5012906;28;19921;-85
2022/12/08 01:07:42;;;;;;;;;;;1.80;99.90;;;;;;5013910;28;20261;-84
2022/12/08 01:10:08;;;;;;;;;;;1.80;99.90;;;;;;4984466;28;20058;-84
2022/12/08 01:12:34;;;;;;;;;;;1.80;99.90;;;;;;5018207;28;19940;-84
2022/12/08 01:14:59;;;;;;;;;;;1.80;99.90;;;;;;5017856;28;19922;-84
2022/12/08 01:17:25;;;;;;;;;;;1.80;99.90;;;;;;5016783;28;19928;-84
2022/12/08 01:19:50;;;;;;;;;;;1.90;99.90;;;;;;5017125;28;19925;-84
2022/12/08 01:22:16;;;;;;;;;;;1.90;99.90;;;;;;5001132;28;19921;-84
2022/12/08 01:24:41;;;;;;;;;;;2.10;99.90;;;;;;5016847;28;20248;-87
2022/12/08 01:27:07;;;;;;;;;;;2.10;99.90;;;;;;5016118;28;20027;-84
2022/12/08 01:29:33;;;;;;;;;;;2.10;99.90;;;;;;5016382;28;20036;-85
2022/12/08 01:31:58;;;;;;;;;;;2.20;99.90;;;;;;5000005;28;19927;-88
2022/12/08 01:34:24;;;;;;;;;;;2.20;99.90;;;;;;5016158;28;20004;-86
2022/12/08 01:36:50;;;;;;;;;;;2.20;99.90;;;;;;5000354;28;19921;-85
2022/12/08 01:39:16;;;;;;;;;;;2.30;99.90;;;;;;4983590;28;19922;-85
2022/12/08 01:41:42;;;;;;;;;;;2.30;99.90;;;;;;5017308;28;19928;-85
2022/12/08 01:44:09;;;;;;;;;;;2.40;99.90;;;;;;5017227;28;20289;-87
2022/12/08 01:46:53;;;;;;;;;;;2.40;99.90;;;;;;4999996;28;20321;-85
2022/12/08 01:49:19;;;;;;;;;;;2.40;99.90;;;;;;4984968;28;20387;-89
2022/12/08 01:51:51;;;;;;;;;;;2.40;99.90;;;;;;5015973;28;19922;-84
2022/12/08 01:54:17;;;;;;;;;;;2.40;99.90;;;;;;5015955;28;19921;-87
2022/12/08 01:56:49;;;;;;;;;;;2.50;99.90;;;;;;5015716;28;19948;-83
2022/12/08 01:59:15;;;;;;;;;;;2.40;99.90;;;;;;5017762;28;20011;-84
2022/12/08 02:01:40;;;;;;;;;;;2.50;99.90;;;;;;5017010;28;19922;-84
2022/12/08 02:04:06;;;;;;;;;;;2.50;99.90;;;;;;5016197;28;19921;-84
2022/12/08 02:06:33;;;;;;;;;;;2.50;99.90;;;;;;5016017;28;19922;-85
2022/12/08 02:09:00;;;;;;;;;;;2.60;99.90;;;;;;5016873;28;20020;-85
2022/12/08 02:11:25;;;;;;;;;;;2.60;99.90;;;;;;5016082;28;19925;-83
2022/12/08 02:13:52;;;;;;;;;;;2.70;99.90;;;;;;5015890;28;19971;-85
2022/12/08 02:16:36;;;;;;;;;;;2.80;99.90;;;;;;4999434;28;19925;-87
2022/12/08 02:19:08;;;;;;;;;;;2.80;99.90;;;;;;5015623;28;20321;-90
2022/12/08 02:21:36;;;;;;;;;;;2.90;99.90;;;;;;5014682;28;19932;-84
2022/12/08 02:24:06;;;;;;;;;;;2.80;99.90;;;;;;5015699;28;19980;-89
2022/12/08 02:26:42;;;;;;;;;;;2.90;99.90;;;;;;5017307;28;19921;-85
2022/12/08 02:29:08;;;;;;;;;;;2.90;99.90;;;;;;5016444;28;19929;-85
2022/12/08 02:31:52;;;;;;;;;;;2.90;99.90;;;;;;5016207;28;19921;-87
2022/12/08 02:34:28;;;;;;;;;;;2.90;99.90;;;;;;4999079;28;19971;-85
2022/12/08 02:36:57;;;;;;;;;;;2.90;99.90;;;;;;5015095;28;19922;-85
2022/12/08 02:39:36;;;;;;;;;;;2.90;99.90;;;;;;5015499;28;19922;-85
2022/12/08 02:42:01;;;;;;;;;;;2.90;99.90;;;;;;5015894;28;19983;-86
2022/12/08 02:44:40;;;;;;;;;;;3.00;99.90;;;;;;5015325;28;20323;-87
2022/12/08 02:47:11;;;;;;;;;;;2.90;99.90;;;;;;5015198;28;19921;-86
2022/12/08 02:49:37;;;;;;;;;;;2.90;99.90;;;;;;4998417;28;19929;-85
2022/12/08 02:52:11;;;;;;;;;;;2.90;99.90;;;;;;5015091;28;20331;-84
2022/12/08 02:54:42;;;;;;;;;;;2.90;99.90;;;;;;5015084;28;19952;-85
2022/12/08 02:57:11;;;;;;;;;;;3.00;99.90;;;;;;5014754;28;20063;-88
2022/12/08 02:59:59;;;;;;;;;;;3.00;99.90;;;;;;5015128;28;19928;-84
2022/12/08 03:02:25;;;;;;;;;;;2.90;99.90;;;;;;5028206;28;20384;-84
2022/12/08 03:05:12;;;;;;;;;;;2.90;99.90;;;;;;5014775;28;19921;-84
2022/12/08 03:07:58;;;;;;;;;;;2.90;99.90;;;;;;5014593;28;20007;-89
2022/12/08 03:10:31;;;;;;;;;;;2.90;99.90;;;;;;5030559;28;19925;-85
2022/12/08 03:13:00;;;;;;;;;;;2.90;99.90;;;;;;5014330;28;19926;-85
2022/12/08 03:15:29;;;;;;;;;;;3.00;99.90;;;;;;5015565;28;20075;-85
2022/12/08 03:17:56;;;;;;;;;;;3.00;99.90;;;;;;5014656;28;19921;-84
2022/12/08 03:20:23;;;;;;;;;;;2.90;99.90;;;;;;5015659;28;20428;-84
2022/12/08 03:22:50;;;;;;;;;;;3.00;99.90;;;;;;4998059;28;19921;-87
2022/12/08 03:25:18;;;;;;;;;;;3.00;99.90;;;;;;5014191;28;19921;-85
2022/12/08 03:27:46;;;;;;;;;;;2.90;99.90;;;;;;5014353;28;19921;-85
2022/12/08 03:30:12;;;;;;;;;;;2.90;99.90;;;;;;4998313;28;19971;-83
2022/12/08 03:32:37;;;;;;;;;;;2.90;99.90;;;;;;5013902;28;19925;-91
2022/12/08 03:35:05;;;;;;;;;;;2.90;99.90;;;;;;4998147;28;19936;-85
2022/12/08 03:37:36;;;;;;;;;;;2.90;99.90;;;;;;4998121;28;20013;-91
2022/12/08 03:40:02;;;;;;;;;;;2.90;99.90;;;;;;5014270;28;19968;-85
2022/12/08 03:42:28;;;;;;;;;;;2.90;99.90;;;;;;5014573;28;19969;-86
2022/12/08 03:44:54;;;;;;;;;;;2.90;99.90;;;;;;4997602;28;19976;-84
2022/12/08 03:47:19;;;;;;;;;;;3.00;99.90;;;;;;4997740;28;19929;-83
2022/12/08 03:49:45;;;;;;;;;;;3.00;99.90;;;;;;4997267;28;19937;-83
2022/12/08 03:52:18;;;;;;;;;;;3.00;99.90;;;;;;5013765;28;20000;-83
2022/12/08 03:54:46;;;;;;;;;;;3.00;99.90;;;;;;4998651;28;20008;-84
2022/12/08 03:57:22;;;;;;;;;;;;;;;;;;;;;
2022/12/08 03:59:47;;;;;;;;;;;3.00;99.90;;;;;;5013831;28;19928;-83
2022/12/08 04:02:15;;;;;;;;;;;3.00;99.90;;;;;;4997689;28;19925;-85
2022/12/08 04:04:41;;;;;;;;;;;3.00;99.90;;;;;;5014203;28;19921;-86
2022/12/08 04:07:09;;;;;;;;;;;3.00;99.90;;;;;;4998149;28;19921;-89
2022/12/08 04:09:37;;;;;;;;;;;3.10;99.90;;;;;;5014165;28;19921;-84
2022/12/08 04:12:06;;;;;;;;;;;3.10;99.90;;;;;;5014756;28;19925;-83
2022/12/08 04:14:32;;;;;;;;;;;3.10;99.90;;;;;;5014094;28;19972;-85
2022/12/08 04:16:57;;;;;;;;;;;3.10;99.90;;;;;;5013185;28;19952;-84
2022/12/08 04:19:26;;;;;;;;;;;3.10;99.90;;;;;;4997388;28;19956;-85
2022/12/08 04:21:52;;;;;;;;;;;3.10;99.90;;;;;;5013804;28;19928;-88
2022/12/08 04:24:17;;;;;;;;;;;3.10;99.90;;;;;;4996996;28;19996;-84
2022/12/08 04:26:43;;;;;;;;;;;3.10;99.90;;;;;;5013278;28;20060;-87
2022/12/08 04:29:14;;;;;;;;;;;3.00;99.90;;;;;;5013875;28;20019;-85
2022/12/08 04:31:42;;;;;;;;;;;3.00;99.90;;;;;;5013102;28;20280;-83
2022/12/08 04:34:10;;;;;;;;;;;3.00;99.90;;;;;;5013338;28;20019;-85
2022/12/08 04:36:36;;;;;;;;;;;3.00;99.90;;;;;;5013225;28;19921;-85
2022/12/08 04:39:19;;;;;;;;;;;3.00;99.90;;;;;;4996768;28;20059;-86
2022/12/08 04:41:45;;;;;;;;;;;2.90;99.90;;;;;;5014714;28;19921;-84
2022/12/08 04:44:13;;;;;;;;;;;3.00;99.90;;;;;;5012513;28;19928;-85
2022/12/08 04:46:41;;;;;;;;;;;2.90;99.90;;;;;;5013277;28;19921;-85
2022/12/08 04:49:09;;;;;;;;;;;2.90;99.90;;;;;;5012961;28;19941;-85
2022/12/08 04:51:53;;;;;;;;;;;3.00;99.90;;;;;;4997018;28;19928;-84
2022/12/08 04:54:21;;;;;;;;;;;2.90;99.90;;;;;;5012883;28;20005;-84
2022/12/08 04:56:49;;;;;;;;;;;2.80;99.90;;;;;;4980394;28;19921;-84
2022/12/08 04:59:14;;;;;;;;;;;2.80;99.90;;;;;;4980111;28;19922;-89
2022/12/08 05:01:42;;;;;;;;;;;2.80;99.90;;;;;;5013824;28;19964;-84
2022/12/08 05:04:08;;;;;;;;;;;2.80;99.90;;;;;;5012632;28;20044;-87
2022/12/08 05:06:34;;;;;;;;;;;2.80;99.90;;;;;;4996171;28;19937;-85
2022/12/08 05:08:59;;;;;;;;;;;2.80;99.90;;;;;;4996733;28;19926;-84
2022/12/08 05:11:25;;;;;;;;;;;2.80;99.90;;;;;;5012756;28;19973;-84
2022/12/08 05:13:51;;;;;;;;;;;2.80;99.90;;;;;;4995982;28;19929;-83
2022/12/08 05:16:16;;;;;;;;;;;2.80;99.90;;;;;;5013077;28;19987;-84
2022/12/08 05:18:45;;;;;;;;;;;2.80;99.90;;;;;;5012363;28;20020;-86
2022/12/08 05:21:11;;;;;;;;;;;2.80;99.90;;;;;;5012557;28;19922;-93
2022/12/08 05:23:39;;;;;;;;;;;2.80;99.90;;;;;;5013415;28;19927;-84
2022/12/08 05:26:05;;;;;;;;;;;2.70;99.90;;;;;;4997017;28;20067;-87
2022/12/08 05:28:32;;;;;;;;;;;2.80;99.90;;;;;;4995882;28;20021;-89
2022/12/08 05:31:00;;;;;;;;;;;2.80;99.90;;;;;;4997214;28;20280;-84
2022/12/08 05:33:28;;;;;;;;;;;2.70;99.90;;;;;;5016768;28;19925;-85
2022/12/08 05:35:54;;;;;;;;;;;2.80;99.90;;;;;;5006136;28;19951;-91
2022/12/08 05:38:22;;;;;;;;;;;2.80;99.90;;;;;;5002838;28;20044;-85
2022/12/08 05:41:07;;;;;;;;;;;;;;;;;;;;;
2022/12/08 05:43:33;;;;;;;;;;;2.70;99.90;;;;;;5012897;28;19921;-87
2022/12/08 05:46:13;;;;;;;;;;;2.80;99.90;;;;;;4996312;28;20361;-90
2022/12/08 05:48:41;;;;;;;;;;;2.70;99.90;;;;;;5013085;28;19921;-84
2022/12/08 05:51:14;;;;;;;;;;;2.70;99.90;;;;;;5012870;28;19929;-84
2022/12/08 05:53:42;;;;;;;;;;;2.70;99.90;;;;;;5012631;28;19929;-83
2022/12/08 05:56:18;;;;;;;;;;;;;;;;;;;;;
2022/12/08 05:58:44;;;;;;;;;;;2.70;99.90;;;;;;5016800;28;19926;-84
2022/12/08 06:01:36;;;;;;;;;;;2.70;99.90;;;;;;5016158;28;19944;-84
2022/12/08 06:04:02;;;;;;;;;;;2.60;99.90;;;;;;5014844;28;19922;-84
2022/12/08 06:06:29;;;;;;;;;;;2.60;99.90;;;;;;5017035;28;19935;-84
2022/12/08 06:08:54;;;;;;;;;;;2.60;99.90;;;;;;5016698;28;19944;-84
2022/12/08 06:11:24;;;;;;;;;;;2.70;99.90;;;;;;5015990;28;20357;-84
2022/12/08 06:13:50;;;;;;;;;;;2.70;99.90;;;;;;5015614;28;19968;-84
2022/12/08 06:16:22;;;;;;;;;;;2.70;99.90;;;;;;5015631;28;19944;-85
2022/12/08 06:18:48;;;;;;;;;;;2.70;99.90;;;;;;5015458;28;19922;-84
2022/12/08 06:21:14;;;;;;;;;;;2.70;99.90;;;;;;5016008;28;19971;-84
2022/12/08 06:23:40;;;;;;;;;;;2.70;99.90;;;;;;5015044;28;20395;-86
2022/12/08 06:26:15;;;;;;;;;;;2.70;99.90;;;;;;5015262;28;19937;-84
2022/12/08 06:28:41;;;;;;;;;;;2.70;99.90;;;;;;4999876;28;19927;-83
2022/12/08 06:31:08;;;;;;;;;;;2.70;99.90;;;;;;4999874;28;19922;-84
2022/12/08 06:33:34;;;;;;;;;;;2.70;99.90;;;;;;5015072;28;19937;-83
2022/12/08 06:36:00;;;;;;;;;;;2.70;99.90;;;;;;5015440;28;19921;-88
2022/12/08 06:38:27;;;;;;;;;;;2.70;99.90;;;;;;5015928;28;20288;-84
2022/12/08 06:40:54;;;;;;;;;;;2.70;99.90;;;;;;5015439;28;20040;-84
2022/12/08 06:43:25;;;;;;;;;;;2.60;99.90;;;;;;5015251;28;19928;-83
2022/12/08 06:45:54;;;;;;;;;;;2.70;99.90;;;;;;4999175;28;20419;-85
2022/12/08 06:48:27;;;;;;;;;;;2.70;99.90;;;;;;5015178;28;19922;-85
2022/12/08 06:50:52;;;;;;;;;;;2.80;99.90;;;;;;4999854;28;19928;-86
2022/12/08 06:53:18;;;;;;;;;;;2.70;99.90;;;;;;4999489;28;19921;-84
2022/12/08 06:55:47;;;;;;;;;;;2.70;99.90;;;;;;5016036;28;19921;-86
2022/12/08 06:58:22;;;;;;;;;;;2.70;99.90;;;;;;4999288;28;19921;-85
2022/12/08 07:00:47;;;;;;;;;;;2.70;99.90;;;;;;4999568;28;19928;-85
2022/12/08 07:03:16;;;;;;;;;;;2.60;99.90;;;;;;4998799;28;19925;-85
2022/12/08 07:05:50;;;;;;;;;;;2.70;99.90;;;;;;5015346;28;19925;-85
2022/12/08 07:08:15;;;;;;;;;;;2.70;99.90;;;;;;4998747;28;20031;-85
2022/12/08 07:10:43;;;;;;;;;;;2.60;99.90;;;;;;5014385;28;20377;-84
2022/12/08 07:13:11;;;;;;;;;;;2.60;99.90;;;;;;5014683;28;20276;-85
2022/12/08 07:16:00;;;;;;;;;;;;;;;;;;;;;
2022/12/08 07:18:26;;;;;;;;;;;2.60;99.90;;;;;;5014879;28;19921;-84
2022/12/08 07:20:57;;;;;;;;;;;2.60;99.90;;;;;;4998629;28;19921;-85
2022/12/08 07:23:25;;;;;;;;;;;2.60;99.90;;;;;;4982746;28;20403;-84
2022/12/08 07:25:51;;;;;;;;;;;2.60;99.90;;;;;;4999168;28;19927;-84
2022/12/08 07:28:16;;;;;;;;;;;2.60;99.90;;;;;;4998433;28;20015;-83
2022/12/08 07:30:56;;;;;;;;;;;2.50;99.90;;;;;;4999193;28;19967;-85
2022/12/08 07:33:34;;;;;;;;;;;;;;;;;;;;;
2022/12/08 07:36:03;;;;;;;;;;;2.60;99.90;;;;;;5015638;28;19927;-84
2022/12/08 07:38:31;;;;;;;;;;;2.50;99.90;;;;;;5014579;28;19921;-84
2022/12/08 07:40:59;;;;;;;;;;;2.50;99.90;;;;;;5014759;28;19972;-84
2022/12/08 07:43:32;;;;;;;;;;;2.50;99.90;;;;;;4998786;28;20311;-85
2022/12/08 07:46:03;;;;;;;;;;;2.50;99.90;;;;;;4998862;28;19921;-85
2022/12/08 07:48:32;;;;;;;;;;;2.50;99.90;;;;;;5014124;28;19921;-84
2022/12/08 07:51:06;;;;;;;;;;;2.50;99.90;;;;;;5013742;28;19928;-85
2022/12/08 07:53:42;;;;;;;;;;;2.50;99.90;;;;;;5014022;28;19925;-84
2022/12/08 07:56:14;;;;;;;;;;;2.40;99.90;;;;;;4982368;28;19928;-85
2022/12/08 07:58:44;;;;;;;;;;;2.40;99.90;;;;;;4998016;28;20336;-85
2022/12/08 08:04:19;;;;;;;;;;;2.40;99.90;;;;;;5013940;28;19921;-85
2022/12/08 08:06:57;;;;;;;;;;;;;;;;;;;;;
2022/12/08 08:09:26;;;;;;;;;;;2.40;99.90;;;;;;5014939;28;19964;-84
2022/12/08 08:11:51;;;;;;;;;;;2.40;99.90;;;;;;4997487;28;20361;-83
2022/12/08 08:14:18;;;;;;;;;;;2.40;99.90;;;;;;4981552;28;19921;-84
2022/12/08 08:16:46;;;;;;;;;;;2.30;99.90;;;;;;4996702;28;19926;-84
2022/12/08 08:19:14;;;;;;;;;;;2.40;99.90;;;;;;5012865;28;20339;-84
2022/12/08 08:21:45;;;;;;;;;;;2.40;99.90;;;;;;4998075;28;19928;-84
2022/12/08 08:24:16;;;;;;;;;;;2.40;99.90;;;;;;5014565;28;19926;-84
2022/12/08 08:26:44;;;;;;;;;;;2.40;99.90;;;;;;4998198;28;20332;-84
2022/12/08 08:29:14;;;;;;;;;;;2.40;99.90;;;;;;4997524;28;20331;-84
2022/12/08 08:31:42;;;;;;;;;;;2.40;99.90;;;;;;5013399;28;19928;-84
2022/12/08 08:34:11;;;;;;;;;;;2.40;99.90;;;;;;5013885;28;19928;-83
2022/12/08 08:36:39;;;;;;;;;;;2.40;99.90;;;;;;5013547;28;19928;-84
2022/12/08 08:39:04;;;;;;;;;;;2.40;99.90;;;;;;5013514;28;19929;-85
2022/12/08 08:41:34;;;;;;;;;;;2.40;99.90;;;;;;4996664;28;20293;-90
2022/12/08 08:44:02;;;;;;;;;;;2.40;99.90;;;;;;4996783;28;20039;-84
2022/12/08 08:46:28;;;;;;;;;;;2.50;99.90;;;;;;5013220;28;20353;-84
2022/12/08 08:48:54;;;;;;;;;;;2.50;99.90;;;;;;4980681;28;19921;-83
2022/12/08 08:51:24;;;;;;;;;;;2.50;99.90;;;;;;4996398;28;19922;-84
2022/12/08 08:53:55;;;;;;;;;;;2.60;99.90;;;;;;4997651;28;20319;-83
2022/12/08 08:56:27;;;;;;;;;;;2.60;99.90;;;;;;4997515;28;20012;-84
2022/12/08 08:59:02;;;;;;;;;;;2.50;99.90;;;;;;4996934;28;19928;-85
2022/12/08 09:01:45;;;;;;;;;;;2.70;99.90;;;;;;5013581;28;19943;-84
2022/12/08 09:04:18;;;;;;;;;;;2.70;99.90;;;;;;4997641;28;20337;-84
2022/12/08 09:06:48;;;;;;;;;;;2.70;99.90;;;;;;4997406;28;19944;-84
2022/12/08 09:09:23;;;;;;;;;;;2.70;99.90;;;;;;4996435;28;20467;-85
2022/12/08 09:11:54;;;;;;;;;;;2.80;99.90;;;;;;5012788;28;19929;-84
2022/12/08 09:14:22;;;;;;;;;;;2.80;99.90;;;;;;5013282;28;20004;-84
2022/12/08 09:16:52;;;;;;;;;;;2.80;99.90;;;;;;5013249;28;19980;-83
2022/12/08 09:19:28;;;;;;;;;;;2.80;99.90;;;;;;5013804;28;19921;-86
2022/12/08 09:22:04;;;;;;;;;;;;;;;;;;;;;
2022/12/08 09:24:40;;;;;;;;;;;;;;;;;;;;;
2022/12/08 09:27:06;;;;;;;;;;;2.90;99.90;;;;;;5013273;28;19929;-84
2022/12/08 09:29:31;;;;;;;;;;;3.00;99.90;;;;;;5014320;28;19925;-84
2022/12/08 09:31:57;;;;;;;;;;;2.90;99.90;;;;;;5001197;28;20345;-89
2022/12/08 09:34:22;;;;;;;;;;;3.00;99.90;;;;;;5016649;28;19921;-84
2022/12/08 09:36:48;;;;;;;;;;;3.00;99.90;;;;;;5016596;28;19945;-84
2022/12/08 09:39:16;;;;;;;;;;;3.00;99.90;;;;;;5000236;28;19929;-85
2022/12/08 09:41:44;;;;;;;;;;;3.10;99.90;;;;;;5000155;28;20341;-84
2022/12/08 09:44:28;;;;;;;;;;;3.10;99.90;;;;;;5016528;28;20361;-84
2022/12/08 09:46:54;;;;;;;;;;;3.10;99.90;;;;;;5000324;28;19925;-84
2022/12/08 09:49:29;;;;;;;;;;;3.20;99.90;;;;;;5016087;28;20361;-84
2022/12/08 09:51:55;;;;;;;;;;;3.20;99.90;;;;;;5015840;28;19965;-84
2022/12/08 09:54:22;;;;;;;;;;;3.20;99.90;;;;;;5017278;28;19975;-85
2022/12/08 09:56:50;;;;;;;;;;;3.30;99.90;;;;;;5000018;28;20012;-86
2022/12/08 09:59:23;;;;;;;;;;;3.30;99.90;;;;;;5017120;28;19921;-86
2022/12/08 10:01:49;;;;;;;;;;;3.30;99.90;;;;;;5016570;28;20012;-85
2022/12/08 10:04:25;;;;;;;;;;;3.30;99.90;;;;;;5016014;28;20026;-84
2022/12/08 10:07:14;;;;;;;;;;;3.40;99.90;;;;;;5017075;28;19988;-84
2022/12/08 10:09:56;;;;;;;;;;;3.40;99.90;;;;;;4999871;28;19922;-84
2022/12/08 10:12:22;;;;;;;;;;;3.40;99.90;;;;;;5000550;28;20233;-85
2022/12/08 10:14:48;;;;;;;;;;;3.40;99.90;;;;;;5000402;28;19921;-85
2022/12/08 10:17:34;;;;;;;;;;;3.50;99.90;;;;;;4999028;28;19925;-85
2022/12/08 10:20:01;;;;;;;;;;;3.50;99.90;;;;;;5000012;28;19921;-84
2022/12/08 10:22:32;;;;;;;;;;;3.50;99.90;;;;;;5015685;28;20021;-84
2022/12/08 10:25:06;;;;;;;;;;;3.50;99.90;;;;;;4999341;28;19928;-84
2022/12/08 10:27:37;;;;;;;;;;;3.50;99.90;;;;;;4999274;28;19976;-85
2022/12/08 10:30:10;;;;;;;;;;;3.40;99.90;;;;;;4999694;28;19929;-85
2022/12/08 10:32:39;;;;;;;;;;;3.40;99.90;;;;;;4999733;28;19922;-85
2022/12/08 10:35:06;;;;;;;;;;;3.30;99.90;;;;;;5017669;28;20388;-85
2022/12/08 10:37:35;;;;;;;;;;;3.20;99.90;;;;;;5000851;28;19928;-85
2022/12/08 10:40:11;;;;;;;;;;;3.20;99.90;;;;;;5021480;28;20018;-86
2022/12/08 10:42:41;;;;;;;;;;;3.20;99.90;;;;;;5024711;28;20016;-87
2022/12/08 10:45:14;;;;;;;;;;;3.20;99.90;;;;;;5020291;28;19968;-84
2022/12/08 10:47:41;;;;;;;;;;;3.20;99.90;;;;;;5015684;28;19975;-84
2022/12/08 10:50:06;;;;;;;;;;;3.20;99.90;;;;;;5015450;28;19922;-85
2022/12/08 10:52:38;;;;;;;;;;;3.20;99.90;;;;;;4998876;28;19967;-85
2022/12/08 10:55:12;;;;;;;;;;;3.20;99.90;;;;;;5016628;28;20327;-85
2022/12/08 10:57:39;;;;;;;;;;;3.30;99.90;;;;;;5015685;28;19925;-85
2022/12/08 11:00:05;;;;;;;;;;;3.30;99.90;;;;;;5016233;28;19975;-85
2022/12/08 11:02:30;;;;;;;;;;;3.30;99.90;;;;;;4998626;28;19921;-85
2022/12/08 11:05:00;;;;;;;;;;;3.30;99.90;;;;;;5015185;28;20257;-87
2022/12/08 11:07:26;;;;;;;;;;;3.30;99.90;;;;;;5015610;28;20404;-84
2022/12/08 11:09:53;;;;;;;;;;;3.30;99.90;;;;;;4999003;28;19988;-84
2022/12/08 11:12:22;;;;;;;;;;;3.30;99.90;;;;;;5014940;28;19921;-85
2022/12/08 11:14:56;;;;;;;;;;;3.30;99.90;;;;;;5014735;28;19921;-85
2022/12/08 11:17:25;;;;;;;;;;;3.30;99.90;;;;;;4999846;28;19932;-85
2022/12/08 11:19:57;;;;;;;;;;;3.30;99.90;;;;;;5016457;28;20250;-84
2022/12/08 11:22:31;;;;;;;;;;;3.30;99.90;;;;;;5014980;28;19944;-86
2022/12/08 11:25:15;;;;;;;;;;;3.30;99.90;;;;;;5015657;28;20400;-85
2022/12/08 11:27:43;;;;;;;;;;;3.30;99.90;;;;;;4998496;28;19928;-85
2022/12/08 11:30:19;;;;;;;;;;;3.30;99.90;;;;;;5014543;28;19921;-85
2022/12/08 11:32:46;;;;;;;;;;;3.30;99.90;;;;;;4998125;28;19921;-84
2022/12/08 11:35:18;;;;;;;;;;;3.30;99.90;;;;;;5014534;28;19928;-85
2022/12/08 11:37:43;;;;;;;;;;;3.20;99.90;;;;;;5014587;28;19976;-84
2022/12/08 11:40:15;;;;;;;;;;;3.20;99.90;;;;;;4998258;28;19921;-86
2022/12/08 11:42:59;;;;;;;;;;;3.20;99.90;;;;;;5014374;28;19964;-84
2022/12/08 11:45:27;;;;;;;;;;;3.20;99.90;;;;;;4998106;28;19925;-84
2022/12/08 11:48:11;;;;;;;;;;;3.20;99.90;;;;;;5015913;28;20003;-84
2022/12/08 11:50:42;;;;;;;;;;;3.10;99.90;;;;;;4998017;28;20020;-86
2022/12/08 11:53:14;;;;;;;;;;;3.20;99.90;;;;;;4997861;28;20361;-85
2022/12/08 11:55:46;;;;;;;;;;;3.20;99.90;;;;;;4998837;28;19944;-85
2022/12/08 11:58:14;;;;;;;;;;;3.20;99.90;;;;;;5014370;28;20280;-85
2022/12/08 12:00:40;;;;;;;;;;;3.20;99.90;;;;;;5014874;28;19921;-87
2022/12/08 12:03:25;;;;;;;;;;;3.30;99.90;;;;;;4998263;28;19928;-86
2022/12/08 12:06:01;;;;;;;;;;;3.30;99.90;;;;;;4997677;28;19967;-86
2022/12/08 12:08:40;;;;;;;;;;;3.30;99.90;;;;;;4998171;28;19952;-85
2022/12/08 12:11:05;;;;;;;;;;;3.30;99.90;;;;;;4998123;28;20009;-87
2022/12/08 12:13:34;;;;;;;;;;;3.30;99.90;;;;;;4997374;28;20355;-86
2022/12/08 12:16:03;;;;;;;;;;;3.40;99.90;;;;;;5014182;28;19922;-87
2022/12/08 12:18:31;;;;;;;;;;;3.50;99.90;;;;;;4997867;28;19921;-87
2022/12/08 12:20:58;;;;;;;;;;;3.60;99.90;;;;;;4997986;28;20037;-86
2022/12/08 12:23:43;;;;;;;;;;;3.70;99.90;;;;;;4997261;28;19955;-87
2022/12/08 12:26:17;;;;;;;;;;;3.80;99.90;;;;;;4998723;28;19927;-86
2022/12/08 12:28:48;;;;;;;;;;;3.90;99.90;;;;;;5015218;28;19976;-87
2022/12/08 12:31:18;;;;;;;;;;;4.00;99.90;;;;;;4998205;28;19931;-87
2022/12/08 12:33:45;;;;;;;;;;;4.00;99.90;;;;;;5014611;28;19929;-89
2022/12/08 12:36:11;;;;;;;;;;;4.10;99.90;;;;;;4997637;28;20307;-88
2022/12/08 12:41:31;;;;;;;;;;;4.20;99.90;;;;;;5030324;28;19921;-86
2022/12/08 12:44:08;;;;;;;;;;;4.20;99.90;;;;;;5014293;28;19926;-87
2022/12/08 12:46:50;;;;;;;;;;;4.30;99.90;;;;;;5013740;28;19925;-86
2022/12/08 12:49:35;;;;;;;;;;;4.30;99.90;;;;;;5012379;28;19921;-86
2022/12/08 12:52:01;;;;;;;;;;;4.40;99.90;;;;;;4996095;28;19960;-86
2022/12/08 12:54:28;;;;;;;;;;;4.40;99.90;;;;;;4996922;28;19968;-86
2022/12/08 12:56:57;;;;;;;;;;;4.50;99.90;;;;;;5012731;28;20467;-85
2022/12/08 12:59:32;;;;;;;;;;;4.60;99.90;;;;;;5014379;28;19944;-84
2022/12/08 13:01:57;;;;;;;;;;;4.80;99.90;;;;;;5013052;28;19925;-84
2022/12/08 13:04:34;;;;;;;;;;;4.90;99.90;;;;;;5013607;28;20044;-85
2022/12/08 13:07:00;;;;;;;;;;;5.10;99.90;;;;;;5013363;28;19980;-84
2022/12/08 13:09:29;;;;;;;;;;;5.10;99.90;;;;;;5013145;28;19969;-85
2022/12/08 13:11:56;;;;;;;;;;;5.20;99.90;;;;;;5014165;28;19928;-86
2022/12/08 13:14:32;;;;;;;;;;;5.20;99.90;;;;;;5014097;28;19975;-84
2022/12/08 13:17:00;;;;;;;;;;;5.20;99.90;;;;;;5014389;28;19967;-85
2022/12/08 13:19:28;;;;;;;;;;;5.10;99.90;;;;;;4997497;28;20011;-85
2022/12/08 13:21:53;;;;;;;;;;;5.10;99.90;;;;;;4996137;28;19925;-86
2022/12/08 13:24:27;;;;;;;;;;;5.10;99.90;;;;;;5013128;28;20016;-86
2022/12/08 13:27:02;;;;;;;;;;;5.20;99.90;;;;;;5013868;28;19984;-87
2022/12/08 13:29:31;;;;;;;;;;;5.20;99.90;;;;;;5013150;28;20337;-86
2022/12/08 13:31:58;;;;;;;;;;;5.40;99.90;;;;;;5013052;28;19951;-86
2022/12/08 13:34:33;;;;;;;;;;;5.50;99.90;;;;;;5012709;28;19932;-86
2022/12/08 13:37:10;;;;;;;;;;;5.60;99.90;;;;;;5013962;28;19921;-86
2022/12/08 13:39:39;;;;;;;;;;;5.60;99.90;;;;;;5012798;28;19921;-85
2022/12/08 13:42:11;;;;;;;;;;;5.60;99.90;;;;;;5012722;28;20000;-87
2022/12/08 13:44:40;;;;;;;;;;;5.50;99.90;;;;;;4996876;28;19976;-87
2022/12/08 13:47:09;;;;;;;;;;;5.50;99.90;;;;;;4997464;28;19936;-85
2022/12/08 13:49:52;;;;;;;;;;;5.50;99.90;;;;;;5012826;28;19921;-87
2022/12/08 13:52:20;;;;;;;;;;;5.40;99.90;;;;;;5012393;28;19927;-88
2022/12/08 13:54:46;;;;;;;;;;;5.30;99.90;;;;;;4996473;28;19932;-87
2022/12/08 13:57:23;;;;;;;;;;;5.20;99.90;;;;;;4996311;28;19925;-87
2022/12/08 13:59:51;;;;;;;;;;;5.10;99.90;;;;;;5013748;28;20332;-86
2022/12/08 14:02:47;;;;;;;;;;;5.00;99.90;;;;;;5012803;28;19928;-83
2022/12/08 14:05:13;;;;;;;;;;;4.90;99.90;;;;;;5024823;28;19976;-84
2022/12/08 14:07:39;;;;;;;;;;;4.80;99.90;;;;;;5012589;28;19928;-86
2022/12/08 14:10:32;;;;;;;;;;;4.70;99.90;;;;;;4996506;28;19921;-86
2022/12/08 14:13:04;;;;;;;;;;;4.60;99.90;;;;;;5028009;28;19922;-87
2022/12/08 14:15:33;;;;;;;;;;;4.50;99.90;;;;;;5013722;28;20439;-87
2022/12/08 14:17:58;;;;;;;;;;;4.30;99.90;;;;;;5016037;28;19929;-86
2022/12/08 14:20:24;;;;;;;;;;;4.10;99.90;;;;;;5016047;28;19926;-85
2022/12/08 14:22:50;;;;;;;;;;;4.10;99.90;;;;;;5032595;28;20312;-86
2022/12/08 14:25:21;;;;;;;;;;;4.00;99.90;;;;;;5017144;28;19929;-86
2022/12/08 14:27:47;;;;;;;;;;;3.90;99.90;;;;;;5017007;28;19921;-85
2022/12/08 14:30:15;;;;;;;;;;;3.80;99.90;;;;;;5015734;28;19928;-86
2022/12/08 14:32:40;;;;;;;;;;;3.80;99.90;;;;;;4999409;28;20016;-87
2022/12/08 14:35:08;;;;;;;;;;;3.70;99.90;;;;;;4999448;28;20442;-85
2022/12/08 14:37:44;;;;;;;;;;;;;;;;;;;;;
2022/12/08 14:40:31;;;;;;;;;;;3.70;99.90;;;;;;5016135;28;19921;-85
2022/12/08 14:43:13;;;;;;;;;;;3.60;99.90;;;;;;5016509;28;19925;-86
2022/12/08 14:45:41;;;;;;;;;;;3.60;99.90;;;;;;5015447;28;19921;-85
2022/12/08 14:48:39;;;;;;;;;;;3.50;99.90;;;;;;5032040;28;19922;-87
2022/12/08 14:51:11;;;;;;;;;;;3.50;99.90;;;;;;5027019;28;20380;-85
2022/12/08 14:54:00;;;;;;;;;;;3.40;99.90;;;;;;4999054;28;19921;-87
2022/12/08 14:56:29;;;;;;;;;;;3.40;99.90;;;;;;5016496;28;19944;-85
2022/12/08 14:59:04;;;;;;;;;;;3.40;99.90;;;;;;5015606;28;20020;-85
2022/12/08 15:01:30;;;;;;;;;;;3.40;99.90;;;;;;5015136;28;19927;-85
2022/12/08 15:04:11;;;;;;;;;;;3.50;99.90;;;;;;4998772;28;19948;-85